createdAt,value
2018-09-13T00:03:05.001Z,98740.84
2018-09-13T00:07:58.053Z,98731.28
2018-09-13T00:12:51.196Z,98730.08
2018-09-13T00:17:44.163Z,98729.31
2018-09-13T00:22:37.243Z,98720.28
2018-09-13T00:27:30.656Z,98716.69
2018-09-13T00:32:23.753Z,98711.72
2018-09-13T00:37:16.762Z,98714.28
2018-09-13T00:42:10.369Z,98699.81
2018-09-13T00:47:08.335Z,98701.73
2018-09-13T00:52:01.315Z,98697.26
2018-09-13T00:56:54.274Z,98692.50
2018-09-13T01:01:47.538Z,98690.73
2018-09-13T01:06:40.680Z,98687.36
2018-09-13T01:11:33.710Z,98680.33
2018-09-13T01:16:26.597Z,98680.21
2018-09-13T01:21:19.990Z,98682.34
2018-09-13T01:26:12.994Z,98677.27
2018-09-13T01:31:05.909Z,98669.61
2018-09-13T01:35:59.015Z,98671.28
2018-09-13T01:40:52.051Z,98675.49
2018-09-13T01:45:45.023Z,98658.48
2018-09-13T01:50:37.983Z,98664.83
2018-09-13T01:55:31.175Z,98669.21
2018-09-13T02:00:24.233Z,98668.44
2018-09-13T02:05:17.391Z,98656.05
2018-09-13T02:10:10.387Z,98644.41
2018-09-13T02:15:03.477Z,98644.28
2018-09-13T02:19:56.546Z,98636.34
2018-09-13T02:24:49.558Z,98636.84
2018-09-13T02:29:49.230Z,98644.23
2018-09-13T02:34:42.358Z,98641.55
2018-09-13T02:39:35.350Z,98647.06
2018-09-13T02:44:28.334Z,98643.09
2018-09-13T02:49:21.750Z,98635.26
2018-09-13T02:54:14.687Z,98640.84
2018-09-13T02:59:07.958Z,98651.05
2018-09-13T03:04:01.037Z,98653.85
2018-09-13T03:08:54.045Z,98658.14
2018-09-13T03:13:46.988Z,98650.17
2018-09-13T03:18:39.874Z,98648.59
2018-09-13T03:23:33.067Z,98654.70
2018-09-13T03:28:26.249Z,98653.70
2018-09-13T03:33:19.446Z,98662.69
2018-09-13T03:38:12.708Z,98659.27
2018-09-13T03:43:05.778Z,98659.63
2018-09-13T03:47:59.193Z,98665.71
2018-09-13T03:52:52.167Z,98655.21
2018-09-13T03:57:45.223Z,98648.38
2018-09-13T04:02:38.217Z,98651.00
2018-09-13T04:07:33.234Z,98646.42
2018-09-13T04:12:26.344Z,98640.92
2018-09-13T04:17:19.296Z,98635.47
2018-09-13T04:22:13.084Z,98631.38
2018-09-13T04:27:06.004Z,98633.61
2018-09-13T04:31:59.329Z,98636.06
2018-09-13T04:36:52.631Z,98634.80
2018-09-13T04:41:45.486Z,98635.56
2018-09-13T04:46:38.545Z,98632.73
2018-09-13T04:51:31.587Z,98628.11
2018-09-13T04:56:25.104Z,98630.19
2018-09-13T05:01:18.062Z,98631.17
2018-09-13T05:06:11.186Z,98627.05
2018-09-13T05:11:04.259Z,98621.33
2018-09-13T05:15:57.830Z,98618.98
2018-09-13T05:20:50.829Z,98616.48
2018-09-13T05:25:44.676Z,98614.69
2018-09-13T05:30:37.694Z,98608.38
2018-09-13T05:35:30.630Z,98610.09
2018-09-13T05:40:24.270Z,98606.63
2018-09-13T05:45:17.505Z,98609.27
2018-09-13T05:50:10.523Z,98602.31
2018-09-13T05:55:03.469Z,98602.54
2018-09-13T05:59:56.485Z,98613.86
2018-09-13T06:04:50.391Z,98616.92
2018-09-13T06:09:43.409Z,98613.41
2018-09-13T06:14:36.635Z,98619.72
2018-09-13T06:19:29.634Z,98621.58
2018-09-13T06:24:22.900Z,98635.81
2018-09-13T06:29:16.007Z,98625.16
2018-09-13T06:34:09.170Z,98631.83
2018-09-13T06:39:02.300Z,98624.19
2018-09-13T06:43:55.391Z,98622.91
2018-09-13T06:48:48.471Z,98622.84
2018-09-13T06:53:41.611Z,98625.47
2018-09-13T06:58:34.561Z,98627.13
2018-09-13T07:03:27.538Z,98628.41
2018-09-13T07:08:20.557Z,98624.88
2018-09-13T07:13:13.552Z,98622.13
2018-09-13T07:18:07.023Z,98623.05
2018-09-13T07:23:00.013Z,98620.39
2018-09-13T07:27:53.296Z,98616.70
2018-09-13T07:32:46.471Z,98620.94
2018-09-13T07:37:39.534Z,98614.53
2018-09-13T07:42:32.759Z,98614.92
2018-09-13T07:47:25.913Z,98610.62
2018-09-13T07:52:19.387Z,98615.50
2018-09-13T07:57:12.469Z,98616.91
2018-09-13T08:02:05.632Z,98611.17
2018-09-13T08:06:58.695Z,98612.32
2018-09-13T08:11:51.810Z,98614.29
2018-09-13T08:16:45.059Z,98613.93
2018-09-13T08:21:38.132Z,98609.95
2018-09-13T08:26:31.138Z,98609.16
2018-09-13T08:31:24.251Z,98615.95
2018-09-13T08:36:17.315Z,98603.77
2018-09-13T08:41:10.702Z,98604.87
2018-09-13T08:46:03.746Z,98600.78
2018-09-13T08:50:57.150Z,98589.60
2018-09-13T08:55:50.192Z,98581.88
2018-09-13T09:00:43.226Z,98588.66
2018-09-13T09:05:36.226Z,98579.60
2018-09-13T09:10:29.267Z,98574.48
2018-09-13T09:15:22.390Z,98556.53
2018-09-13T09:20:15.355Z,98548.28
2018-09-13T09:25:08.306Z,98556.39
2018-09-13T09:30:01.339Z,98545.67
2018-09-13T09:34:54.430Z,98548.16
2018-09-13T09:39:47.453Z,98541.95
2018-09-13T09:44:40.559Z,98533.53
2018-09-13T09:49:33.556Z,98517.59
2018-09-13T09:54:26.750Z,98514.95
2018-09-13T09:59:20.767Z,98507.94
2018-09-13T10:04:13.788Z,98498.39
2018-09-13T10:09:07.936Z,98487.00
2018-09-13T10:14:00.960Z,98474.98
2018-09-13T10:18:59.397Z,98469.58
2018-09-13T10:23:57.805Z,98479.92
2018-09-13T10:28:56.382Z,98455.55
2018-09-13T10:33:54.768Z,98451.09
2018-09-13T10:38:53.232Z,98430.99
2018-09-13T10:43:51.570Z,98424.38
2018-09-13T10:48:50.090Z,98417.60
2018-09-13T10:53:44.587Z,98431.02
2018-09-13T10:58:37.630Z,98432.63
2018-09-13T11:03:30.606Z,98425.81
2018-09-13T11:08:23.951Z,98422.58
2018-09-13T11:14:21.119Z,98433.02
2018-09-13T11:19:14.169Z,98425.38
2018-09-13T11:24:07.384Z,98439.33
2018-09-13T11:29:00.569Z,98433.21
2018-09-13T11:33:53.683Z,98434.20
2018-09-13T11:38:46.710Z,98438.83
2018-09-13T11:43:39.932Z,98436.08
2018-09-13T11:48:33.657Z,98433.59
2018-09-13T11:53:26.724Z,98429.66
2018-09-13T11:58:20.412Z,98421.34
2018-09-13T12:03:14.086Z,98407.69
2018-09-13T12:08:07.494Z,98401.41
2018-09-13T12:13:00.834Z,98396.91
2018-09-13T12:17:53.853Z,98395.75
2018-09-13T12:22:46.820Z,98386.85
2018-09-13T12:27:39.898Z,98390.20
2018-09-13T12:32:33.006Z,98387.00
2018-09-13T12:37:26.196Z,98376.47
2018-09-13T12:42:19.237Z,98364.37
2018-09-13T12:47:12.299Z,98354.67
2018-09-13T12:52:05.625Z,98351.05
2018-09-13T12:56:58.984Z,98344.77
2018-09-13T13:01:52.293Z,98340.36
2018-09-13T13:06:45.555Z,98341.86
2018-09-13T13:11:38.693Z,98318.41
2018-09-13T13:16:31.993Z,98310.54
2018-09-13T13:21:25.139Z,98310.75
2018-09-13T13:26:19.033Z,98306.09
2018-09-13T13:31:12.263Z,98293.16
2018-09-13T13:36:06.115Z,98287.24
2018-09-13T13:41:00.379Z,98284.78
2018-09-13T13:45:54.391Z,98289.94
2018-09-13T13:50:47.582Z,98294.80
2018-09-13T13:55:40.751Z,98315.23
2018-09-13T14:00:34.232Z,98318.84
2018-09-13T14:05:27.549Z,98323.44
2018-09-13T14:10:20.785Z,98314.22
2018-09-13T14:15:13.975Z,98320.95
2018-09-13T14:20:07.596Z,98326.20
2018-09-13T14:25:01.087Z,98332.63
2018-09-13T14:29:54.657Z,98328.80
2018-09-13T14:34:47.962Z,98335.39
2018-09-13T14:39:41.578Z,98355.83
2018-09-13T14:44:35.429Z,98364.61
2018-09-13T14:49:29.354Z,98361.74
2018-09-13T14:54:22.441Z,98378.11
2018-09-13T14:59:15.566Z,98372.47
2018-09-13T15:04:08.755Z,98380.76
2018-09-13T15:09:06.438Z,98374.62
2018-09-13T15:13:59.495Z,98374.67
2018-09-13T15:18:52.689Z,98375.45
2018-09-13T15:23:46.205Z,98374.17
2018-09-13T15:28:39.362Z,98375.05
2018-09-13T15:33:32.668Z,98371.08
2018-09-13T15:38:25.976Z,98360.31
2018-09-13T15:43:19.202Z,98357.33
2018-09-13T15:48:12.305Z,98343.43
2018-09-13T15:53:05.456Z,98348.23
2018-09-13T15:57:58.586Z,98333.18
2018-09-13T16:02:51.812Z,98324.75
2018-09-13T16:07:45.112Z,98325.14
2018-09-13T16:12:38.235Z,98323.96
2018-09-13T16:17:31.625Z,98325.41
2018-09-13T16:22:24.723Z,98332.68
2018-09-13T16:27:18.074Z,98336.77
2018-09-13T16:32:12.005Z,98340.41
2018-09-13T16:37:08.059Z,98344.21
2018-09-13T16:42:06.833Z,98339.25
2018-09-13T16:47:06.483Z,98333.98
2018-09-13T16:51:59.771Z,98340.63
2018-09-13T16:56:53.314Z,98345.27
2018-09-13T17:01:46.781Z,98346.82
2018-09-13T17:06:40.160Z,98338.89
2018-09-13T17:11:33.586Z,98339.17
2018-09-13T17:16:27.332Z,98342.93
2018-09-13T17:21:20.564Z,98338.28
2018-09-13T17:26:13.819Z,98338.58
2018-09-13T17:31:06.955Z,98341.09
2018-09-13T17:36:00.436Z,98334.25
2018-09-13T17:40:53.631Z,98338.33
2018-09-13T17:45:48.502Z,98351.30
2018-09-13T17:50:41.771Z,98355.34
2018-09-13T17:55:38.071Z,98362.55
2018-09-13T18:00:31.175Z,98367.09
2018-09-13T18:05:24.590Z,98360.58
2018-09-13T18:10:17.835Z,98355.84
2018-09-13T18:15:11.854Z,98365.58
2018-09-13T18:20:10.383Z,98374.41
2018-09-13T18:25:03.404Z,98373.53
2018-09-13T18:29:56.820Z,98375.31
2018-09-13T18:34:51.487Z,98375.78
2018-09-13T18:39:44.789Z,98375.45
2018-09-13T18:44:37.971Z,98372.76
2018-09-13T18:49:31.179Z,98364.06
2018-09-13T18:54:24.928Z,98362.91
2018-09-13T18:59:19.252Z,98363.67
2018-09-13T19:04:12.527Z,98368.53
2018-09-13T19:09:11.185Z,98373.02
2018-09-13T19:14:05.729Z,98373.73
2018-09-13T19:18:59.539Z,98379.90
2018-09-13T19:23:53.399Z,98373.56
2018-09-13T19:28:46.822Z,98379.06
2018-09-13T19:33:41.152Z,98373.70
2018-09-13T19:38:34.501Z,98386.11
2018-09-13T19:43:29.418Z,98376.23
2018-09-13T19:48:22.663Z,98381.98
2018-09-13T19:53:16.394Z,98373.92
2018-09-13T19:58:09.812Z,98372.01
2018-09-13T20:03:03.473Z,98370.14
2018-09-13T20:07:56.454Z,98367.88
2018-09-13T20:12:50.292Z,98364.55
2018-09-13T20:17:43.958Z,98357.59
2018-09-13T20:22:37.223Z,98363.05
2018-09-13T20:27:30.566Z,98367.52
2018-09-13T20:32:23.772Z,98375.42
2018-09-13T20:37:16.879Z,98377.63
2018-09-13T20:42:09.947Z,98374.36
2018-09-13T20:47:03.066Z,98377.36
2018-09-13T20:51:56.059Z,98376.92
2018-09-13T20:56:49.735Z,98371.95
2018-09-13T21:01:43.054Z,98362.84
2018-09-13T21:06:36.073Z,98358.42
2018-09-13T21:11:29.192Z,98365.20
2018-09-13T21:16:22.781Z,98356.55
2018-09-13T21:21:15.925Z,98357.92
2018-09-13T21:26:08.993Z,98358.55
2018-09-13T21:31:02.218Z,98358.45
2018-09-13T21:35:55.451Z,98357.71
2018-09-13T21:40:48.958Z,98345.32
2018-09-13T21:45:42.048Z,98340.36
2018-09-13T21:50:35.116Z,98344.30
2018-09-13T21:55:29.104Z,98334.73
2018-09-13T22:00:22.439Z,98331.32
2018-09-13T22:05:15.465Z,98326.11
2018-09-13T22:10:08.902Z,98325.59
2018-09-13T22:15:01.986Z,98329.02
2018-09-13T22:19:54.950Z,98322.66
2018-09-13T22:24:48.115Z,98324.22
2018-09-13T22:29:41.150Z,98327.18
2018-09-13T22:34:34.727Z,98328.70
2018-09-13T22:39:27.830Z,98324.15
2018-09-13T22:44:22.050Z,98329.20
2018-09-13T22:49:15.249Z,98324.63
2018-09-13T22:54:08.503Z,98328.83
2018-09-13T22:59:02.051Z,98327.36
2018-09-13T23:03:55.206Z,98333.22
2018-09-13T23:08:48.249Z,98330.26
2018-09-13T23:13:43.767Z,98333.02
2018-09-13T23:18:37.027Z,98320.12
2018-09-13T23:23:30.279Z,98321.08
2018-09-13T23:28:23.202Z,98318.02
2018-09-13T23:33:16.456Z,98311.97
2018-09-13T23:38:09.601Z,98307.24
2018-09-13T23:43:02.699Z,98320.03
2018-09-13T23:47:55.757Z,98318.13
2018-09-13T23:52:48.927Z,98323.91
2018-09-13T23:57:42.091Z,98330.09
